sensor_id;sensor_type;location;lat;lon;timestamp;pressure;altitude;pressure_sealevel;temperature
31921;BMP280;66485;52.128;4.436;2023-08-07T00:02:24;101508.97;;;22.87
31921;BMP280;66485;52.128;4.436;2023-08-07T00:04:50;101522.63;;;22.87
31921;BMP280;66485;52.128;4.436;2023-08-07T00:07:15;101522.63;;;22.87
31921;BMP280;66485;52.128;4.436;2023-08-07T00:09:41;101511.25;;;22.88
31921;BMP280;66485;52.128;4.436;2023-08-07T00:12:06;101511.25;;;22.88
31921;BMP280;66485;52.128;4.436;2023-08-07T00:14:32;101513.31;;;22.84
31921;BMP280;66485;52.128;4.436;2023-08-07T00:16:57;101518.69;;;22.88
31921;BMP280;66485;52.128;4.436;2023-08-07T00:19:23;101517.16;;;22.87
31921;BMP280;66485;52.128;4.436;2023-08-07T00:21:48;101518.25;;;22.89
31921;BMP280;66485;52.128;4.436;2023-08-07T00:24:13;101525.34;;;22.87
31921;BMP280;66485;52.128;4.436;2023-08-07T00:26:38;101525.34;;;22.87
31921;BMP280;66485;52.128;4.436;2023-08-07T00:29:04;101525.34;;;22.87
31921;BMP280;66485;52.128;4.436;2023-08-07T00:31:29;101529.63;;;22.88
31921;BMP280;66485;52.128;4.436;2023-08-07T00:33:57;101523.03;;;22.85
31921;BMP280;66485;52.128;4.436;2023-08-07T00:36:23;101528.94;;;22.84
31921;BMP280;66485;52.128;4.436;2023-08-07T00:38:48;101528.94;;;22.84
31921;BMP280;66485;52.128;4.436;2023-08-07T00:41:13;101525.84;;;22.82
31921;BMP280;66485;52.128;4.436;2023-08-07T00:43:39;101531.31;;;22.82
31921;BMP280;66485;52.128;4.436;2023-08-07T00:46:04;101526.19;;;22.84
31921;BMP280;66485;52.128;4.436;2023-08-07T00:48:31;101536.78;;;22.82
31921;BMP280;66485;52.128;4.436;2023-08-07T00:50:56;101544.97;;;22.82
31921;BMP280;66485;52.128;4.436;2023-08-07T00:53:22;101546.25;;;22.77
31921;BMP280;66485;52.128;4.436;2023-08-07T00:55:48;101529.78;;;22.81
31921;BMP280;66485;52.128;4.436;2023-08-07T00:58:14;101528.25;;;22.80
31921;BMP280;66485;52.128;4.436;2023-08-07T01:00:39;101535.34;;;22.77
31921;BMP280;66485;52.128;4.436;2023-08-07T01:03:07;101535.34;;;22.77
31921;BMP280;66485;52.128;4.436;2023-08-07T01:05:32;101525.72;;;22.73
31921;BMP280;66485;52.128;4.436;2023-08-07T01:07:57;101538.53;;;22.76
31921;BMP280;66485;52.128;4.436;2023-08-07T01:10:32;101540.06;;;22.77
31921;BMP280;66485;52.128;4.436;2023-08-07T01:13:10;101560.69;;;22.78
31921;BMP280;66485;52.128;4.436;2023-08-07T01:15:39;101556.19;;;22.71
31921;BMP280;66485;52.128;4.436;2023-08-07T01:18:07;101535.78;;;22.76
31921;BMP280;66485;52.128;4.436;2023-08-07T01:20:32;101538.53;;;22.76
31921;BMP280;66485;52.128;4.436;2023-08-07T01:22:58;101538.53;;;22.76
31921;BMP280;66485;52.128;4.436;2023-08-07T01:25:23;101551.00;;;22.77
31921;BMP280;66485;52.128;4.436;2023-08-07T01:30:30;101557.28;;;22.74
31921;BMP280;66485;52.128;4.436;2023-08-07T01:35:29;101547.91;;;22.75
31921;BMP280;66485;52.128;4.436;2023-08-07T01:37:56;101547.91;;;22.75
31921;BMP280;66485;52.128;4.436;2023-08-07T01:40:22;101542.09;;;22.73
31921;BMP280;66485;52.128;4.436;2023-08-07T01:42:48;101542.09;;;22.73
31921;BMP280;66485;52.128;4.436;2023-08-07T01:45:13;101547.66;;;22.69
31921;BMP280;66485;52.128;4.436;2023-08-07T01:47:39;101537.06;;;22.71
31921;BMP280;66485;52.128;4.436;2023-08-07T01:50:05;101544.16;;;22.69
31921;BMP280;66485;52.128;4.436;2023-08-07T01:52:31;101544.47;;;22.71
31921;BMP280;66485;52.128;4.436;2023-08-07T01:54:56;101521.44;;;22.72
31921;BMP280;66485;52.128;4.436;2023-08-07T01:57:22;101521.44;;;22.72
31921;BMP280;66485;52.128;4.436;2023-08-07T01:59:47;101542.94;;;22.70
31921;BMP280;66485;52.128;4.436;2023-08-07T02:02:12;101542.94;;;22.70
31921;BMP280;66485;52.128;4.436;2023-08-07T02:04:38;101553.53;;;22.68
31921;BMP280;66485;52.128;4.436;2023-08-07T02:07:03;101549.28;;;22.67
31921;BMP280;66485;52.128;4.436;2023-08-07T02:09:29;101555.09;;;22.69
31921;BMP280;66485;52.128;4.436;2023-08-07T02:11:54;101550.47;;;22.66
31921;BMP280;66485;52.128;4.436;2023-08-07T02:14:19;101547.00;;;22.65
31921;BMP280;66485;52.128;4.436;2023-08-07T02:16:45;101550.16;;;22.64
31921;BMP280;66485;52.128;4.436;2023-08-07T02:19:10;101562.94;;;22.67
31921;BMP280;66485;52.128;4.436;2023-08-07T02:21:35;101555.94;;;22.66
31921;BMP280;66485;52.128;4.436;2023-08-07T02:24:01;101555.94;;;22.66
31921;BMP280;66485;52.128;4.436;2023-08-07T02:26:26;101555.94;;;22.66
31921;BMP280;66485;52.128;4.436;2023-08-07T02:28:51;101562.25;;;22.63
31921;BMP280;66485;52.128;4.436;2023-08-07T02:31:17;101552.53;;;22.62
31921;BMP280;66485;52.128;4.436;2023-08-07T02:33:42;101581.72;;;22.65
31921;BMP280;66485;52.128;4.436;2023-08-07T02:36:07;101574.31;;;22.65
31921;BMP280;66485;52.128;4.436;2023-08-07T02:38:33;101568.06;;;22.65
31921;BMP280;66485;52.128;4.436;2023-08-07T02:40:58;101568.50;;;22.63
31921;BMP280;66485;52.128;4.436;2023-08-07T02:43:24;101556.78;;;22.63
31921;BMP280;66485;52.128;4.436;2023-08-07T02:45:49;101559.53;;;22.63
31921;BMP280;66485;52.128;4.436;2023-08-07T02:48:14;101562.31;;;22.59
31921;BMP280;66485;52.128;4.436;2023-08-07T02:50:40;101558.41;;;22.60
31921;BMP280;66485;52.128;4.436;2023-08-07T02:53:05;101556.44;;;22.61
31921;BMP280;66485;52.128;4.436;2023-08-07T02:55:31;101549.13;;;22.58
31921;BMP280;66485;52.128;4.436;2023-08-07T02:57:56;101552.59;;;22.58
31921;BMP280;66485;52.128;4.436;2023-08-07T03:00:21;101552.59;;;22.58
31921;BMP280;66485;52.128;4.436;2023-08-07T03:02:47;101551.19;;;22.54
31921;BMP280;66485;52.128;4.436;2023-08-07T03:05:12;101551.50;;;22.56
31921;BMP280;66485;52.128;4.436;2023-08-07T03:07:37;101549.53;;;22.56
31921;BMP280;66485;52.128;4.436;2023-08-07T03:10:03;101553.38;;;22.59
31921;BMP280;66485;52.128;4.436;2023-08-07T03:12:29;101556.53;;;22.57
31921;BMP280;66485;52.128;4.436;2023-08-07T03:14:54;101556.53;;;22.57
31921;BMP280;66485;52.128;4.436;2023-08-07T03:17:20;101553.81;;;22.57
31921;BMP280;66485;52.128;4.436;2023-08-07T03:19:45;101553.81;;;22.57
31921;BMP280;66485;52.128;4.436;2023-08-07T03:22:11;101557.84;;;22.52
31921;BMP280;66485;52.128;4.436;2023-08-07T03:24:37;101551.19;;;22.54
31921;BMP280;66485;52.128;4.436;2023-08-07T03:27:02;101543.41;;;22.52
31921;BMP280;66485;52.128;4.436;2023-08-07T03:29:28;101555.88;;;22.53
31921;BMP280;66485;52.128;4.436;2023-08-07T03:31:53;101550.75;;;22.55
31921;BMP280;66485;52.128;4.436;2023-08-07T03:34:18;101554.34;;;22.52
31921;BMP280;66485;52.128;4.436;2023-08-07T03:36:44;101555.50;;;22.51
31921;BMP280;66485;52.128;4.436;2023-08-07T03:39:10;101555.50;;;22.51
31921;BMP280;66485;52.128;4.436;2023-08-07T03:41:37;101555.94;;;22.49
31921;BMP280;66485;52.128;4.436;2023-08-07T03:44:02;101561.72;;;22.51
31921;BMP280;66485;52.128;4.436;2023-08-07T03:46:27;101551.59;;;22.52
31921;BMP280;66485;52.128;4.436;2023-08-07T03:48:53;101543.41;;;22.52
31921;BMP280;66485;52.128;4.436;2023-08-07T03:51:18;101543.41;;;22.52
31921;BMP280;66485;52.128;4.436;2023-08-07T03:53:44;101546.22;;;22.48
31921;BMP280;66485;52.128;4.436;2023-08-07T03:56:09;101553.22;;;22.49
31921;BMP280;66485;52.128;4.436;2023-08-07T03:58:34;101554.72;;;22.50
31921;BMP280;66485;52.128;4.436;2023-08-07T04:01:00;101554.72;;;22.50
31921;BMP280;66485;52.128;4.436;2023-08-07T04:03:25;101552.38;;;22.52
31921;BMP280;66485;52.128;4.436;2023-08-07T04:05:55;101552.38;;;22.52
31921;BMP280;66485;52.128;4.436;2023-08-07T04:08:21;101564.91;;;22.50
31921;BMP280;66485;52.128;4.436;2023-08-07T04:11:04;101564.91;;;22.50
31921;BMP280;66485;52.128;4.436;2023-08-07T04:13:30;101558.69;;;22.49
31921;BMP280;66485;52.128;4.436;2023-08-07T04:15:56;101558.69;;;22.49
31921;BMP280;66485;52.128;4.436;2023-08-07T04:18:22;101570.78;;;22.48
31921;BMP280;66485;52.128;4.436;2023-08-07T04:20:52;101570.78;;;22.48
31921;BMP280;66485;52.128;4.436;2023-08-07T04:23:18;101558.00;;;22.45
31921;BMP280;66485;52.128;4.436;2023-08-07T04:25:45;101572.31;;;22.49
31921;BMP280;66485;52.128;4.436;2023-08-07T04:28:11;101572.31;;;22.49
31921;BMP280;66485;52.128;4.436;2023-08-07T04:30:36;101561.81;;;22.48
31921;BMP280;66485;52.128;4.436;2023-08-07T04:33:02;101565.75;;;22.47
31921;BMP280;66485;52.128;4.436;2023-08-07T04:35:27;101577.00;;;22.49
31921;BMP280;66485;52.128;4.436;2023-08-07T04:37:53;101573.50;;;22.48
31921;BMP280;66485;52.128;4.436;2023-08-07T04:40:19;101577.44;;;22.47
31921;BMP280;66485;52.128;4.436;2023-08-07T04:42:44;101577.44;;;22.47
31921;BMP280;66485;52.128;4.436;2023-08-07T04:45:10;101581.44;;;22.43
31921;BMP280;66485;52.128;4.436;2023-08-07T04:47:35;101593.50;;;22.45
31921;BMP280;66485;52.128;4.436;2023-08-07T04:50:01;101595.03;;;22.46
31921;BMP280;66485;52.128;4.436;2023-08-07T04:52:26;101591.94;;;22.44
31921;BMP280;66485;52.128;4.436;2023-08-07T04:54:51;101579.06;;;22.45
31921;BMP280;66485;52.128;4.436;2023-08-07T04:57:17;101579.06;;;22.45
31921;BMP280;66485;52.128;4.436;2023-08-07T04:59:42;101600.13;;;22.44
31921;BMP280;66485;52.128;4.436;2023-08-07T05:02:07;101593.91;;;22.44
31921;BMP280;66485;52.128;4.436;2023-08-07T05:04:33;101595.88;;;22.43
31921;BMP280;66485;52.128;4.436;2023-08-07T05:06:58;101604.50;;;22.42
31921;BMP280;66485;52.128;4.436;2023-08-07T05:09:23;101604.50;;;22.42
31921;BMP280;66485;52.128;4.436;2023-08-07T05:11:49;101601.00;;;22.41
31921;BMP280;66485;52.128;4.436;2023-08-07T05:14:14;101597.50;;;22.41
31921;BMP280;66485;52.128;4.436;2023-08-07T05:16:40;101593.59;;;22.42
31921;BMP280;66485;52.128;4.436;2023-08-07T05:19:05;101593.59;;;22.42
31921;BMP280;66485;52.128;4.436;2023-08-07T05:21:30;101624.38;;;22.42
31921;BMP280;66485;52.128;4.436;2023-08-07T05:23:56;101632.13;;;22.44
31921;BMP280;66485;52.128;4.436;2023-08-07T05:26:21;101623.63;;;22.42
31921;BMP280;66485;52.128;4.436;2023-08-07T05:28:47;101623.63;;;22.42
31921;BMP280;66485;52.128;4.436;2023-08-07T05:31:12;101618.97;;;22.39
31921;BMP280;66485;52.128;4.436;2023-08-07T05:33:37;101617.78;;;22.40
31921;BMP280;66485;52.128;4.436;2023-08-07T05:36:03;101617.78;;;22.40
31921;BMP280;66485;52.128;4.436;2023-08-07T05:38:30;101620.88;;;22.42
31921;BMP280;66485;52.128;4.436;2023-08-07T05:40:55;101614.22;;;22.43
31921;BMP280;66485;52.128;4.436;2023-08-07T05:43:21;101613.78;;;22.44
31921;BMP280;66485;52.128;4.436;2023-08-07T05:45:46;101632.56;;;22.42
31921;BMP280;66485;52.128;4.436;2023-08-07T05:48:11;101622.84;;;22.41
31921;BMP280;66485;52.128;4.436;2023-08-07T05:50:39;101634.09;;;22.43
31921;BMP280;66485;52.128;4.436;2023-08-07T05:53:05;101634.09;;;22.43
31921;BMP280;66485;52.128;4.436;2023-08-07T05:55:30;101634.53;;;22.42
31921;BMP280;66485;52.128;4.436;2023-08-07T05:57:55;101641.09;;;22.44
31921;BMP280;66485;52.128;4.436;2023-08-07T06:00:21;101638.03;;;22.42
31921;BMP280;66485;52.128;4.436;2023-08-07T06:02:46;101638.03;;;22.42
31921;BMP280;66485;52.128;4.436;2023-08-07T06:05:12;101637.25;;;22.42
31921;BMP280;66485;52.128;4.436;2023-08-07T06:07:38;101642.72;;;22.42
31921;BMP280;66485;52.128;4.436;2023-08-07T06:10:05;101648.56;;;22.40
31921;BMP280;66485;52.128;4.436;2023-08-07T06:12:30;101644.69;;;22.41
31921;BMP280;66485;52.128;4.436;2023-08-07T06:14:55;101648.97;;;22.42
31921;BMP280;66485;52.128;4.436;2023-08-07T06:17:21;101648.97;;;22.42
31921;BMP280;66485;52.128;4.436;2023-08-07T06:19:46;101658.66;;;22.43
31921;BMP280;66485;52.128;4.436;2023-08-07T06:22:11;101658.66;;;22.43
31921;BMP280;66485;52.128;4.436;2023-08-07T06:24:37;101664.88;;;22.44
31921;BMP280;66485;52.128;4.436;2023-08-07T06:27:03;101668.38;;;22.44
31921;BMP280;66485;52.128;4.436;2023-08-07T06:29:28;101662.16;;;22.44
31921;BMP280;66485;52.128;4.436;2023-08-07T06:31:53;101662.16;;;22.44
31921;BMP280;66485;52.128;4.436;2023-08-07T06:34:19;101676.59;;;22.44
31921;BMP280;66485;52.128;4.436;2023-08-07T06:36:44;101671.47;;;22.46
31921;BMP280;66485;52.128;4.436;2023-08-07T06:39:09;101671.47;;;22.46
31921;BMP280;66485;52.128;4.436;2023-08-07T06:41:35;101671.81;;;22.48
31921;BMP280;66485;52.128;4.436;2023-08-07T06:44:01;101671.81;;;22.48
31921;BMP280;66485;52.128;4.436;2023-08-07T06:46:26;101673.34;;;22.49
31921;BMP280;66485;52.128;4.436;2023-08-07T06:48:53;101670.25;;;22.47
31921;BMP280;66485;52.128;4.436;2023-08-07T06:51:18;101685.03;;;22.50
31921;BMP280;66485;52.128;4.436;2023-08-07T06:53:43;101681.09;;;22.51
31921;BMP280;66485;52.128;4.436;2023-08-07T06:56:09;101693.59;;;22.52
31921;BMP280;66485;52.128;4.436;2023-08-07T06:58:34;101685.03;;;22.50
31921;BMP280;66485;52.128;4.436;2023-08-07T07:01:00;101685.03;;;22.50
31921;BMP280;66485;52.128;4.436;2023-08-07T07:03:25;101690.00;;;22.55
31921;BMP280;66485;52.128;4.436;2023-08-07T07:05:50;101693.16;;;22.54
31921;BMP280;66485;52.128;4.436;2023-08-07T07:08:15;101696.63;;;22.54
31921;BMP280;66485;52.128;4.436;2023-08-07T07:10:41;101696.63;;;22.54
31921;BMP280;66485;52.128;4.436;2023-08-07T07:13:06;101691.94;;;22.55
31921;BMP280;66485;52.128;4.436;2023-08-07T07:15:34;101691.94;;;22.55
31921;BMP280;66485;52.128;4.436;2023-08-07T07:18:01;101704.09;;;22.54
31921;BMP280;66485;52.128;4.436;2023-08-07T07:20:26;101704.09;;;22.54
31921;BMP280;66485;52.128;4.436;2023-08-07T07:22:52;101707.56;;;22.54
31921;BMP280;66485;52.128;4.436;2023-08-07T07:25:17;101702.78;;;22.58
31921;BMP280;66485;52.128;4.436;2023-08-07T07:27:43;101702.78;;;22.58
31921;BMP280;66485;52.128;4.436;2023-08-07T07:30:08;101726.63;;;22.58
31921;BMP280;66485;52.128;4.436;2023-08-07T07:32:34;101714.56;;;22.55
31921;BMP280;66485;52.128;4.436;2023-08-07T07:34:59;101714.56;;;22.55
31921;BMP280;66485;52.128;4.436;2023-08-07T07:37:25;101716.09;;;22.56
31921;BMP280;66485;52.128;4.436;2023-08-07T07:39:50;101715.25;;;22.59
31921;BMP280;66485;52.128;4.436;2023-08-07T07:42:15;101715.25;;;22.59
31921;BMP280;66485;52.128;4.436;2023-08-07T07:44:41;101728.47;;;22.61
31921;BMP280;66485;52.128;4.436;2023-08-07T07:47:07;101731.56;;;22.63
31921;BMP280;66485;52.128;4.436;2023-08-07T07:49:33;101734.31;;;22.63
31921;BMP280;66485;52.128;4.436;2023-08-07T07:51:59;101723.44;;;22.59
31921;BMP280;66485;52.128;4.436;2023-08-07T07:54:25;101738.22;;;22.62
31921;BMP280;66485;52.128;4.436;2023-08-07T07:56:50;101748.38;;;22.61
31921;BMP280;66485;52.128;4.436;2023-08-07T07:59:16;101747.53;;;22.64
31921;BMP280;66485;52.128;4.436;2023-08-07T08:01:42;101739.34;;;22.64
31921;BMP280;66485;52.128;4.436;2023-08-07T08:04:08;101739.34;;;22.64
31921;BMP280;66485;52.128;4.436;2023-08-07T08:06:35;101746.34;;;22.65
31921;BMP280;66485;52.128;4.436;2023-08-07T08:09:00;101744.03;;;22.64
31921;BMP280;66485;52.128;4.436;2023-08-07T08:11:29;101751.03;;;22.65
31921;BMP280;66485;52.128;4.436;2023-08-07T08:13:54;101754.09;;;22.67
31921;BMP280;66485;52.128;4.436;2023-08-07T08:16:20;101754.09;;;22.67
31921;BMP280;66485;52.128;4.436;2023-08-07T08:18:45;101755.56;;;22.71
31921;BMP280;66485;52.128;4.436;2023-08-07T08:21:10;101755.66;;;22.68
31921;BMP280;66485;52.128;4.436;2023-08-07T08:23:36;101762.97;;;22.71
31921;BMP280;66485;52.128;4.436;2023-08-07T08:26:01;101762.97;;;22.71
31921;BMP280;66485;52.128;4.436;2023-08-07T08:28:26;101751.72;;;22.69
31921;BMP280;66485;52.128;4.436;2023-08-07T08:30:52;101760.44;;;22.64
31921;BMP280;66485;52.128;4.436;2023-08-07T08:33:17;101773.13;;;22.70
31921;BMP280;66485;52.128;4.436;2023-08-07T08:35:43;101779.66;;;22.76
31921;BMP280;66485;52.128;4.436;2023-08-07T08:38:08;101779.66;;;22.76
31921;BMP280;66485;52.128;4.436;2023-08-07T08:40:35;101778.78;;;22.79
31921;BMP280;66485;52.128;4.436;2023-08-07T08:43:02;101790.63;;;22.73
31921;BMP280;66485;52.128;4.436;2023-08-07T08:45:30;101785.91;;;22.77
31921;BMP280;66485;52.128;4.436;2023-08-07T08:48:02;101785.91;;;22.77
31921;BMP280;66485;52.128;4.436;2023-08-07T08:50:29;101797.00;;;22.86
31921;BMP280;66485;52.128;4.436;2023-08-07T08:52:56;101797.00;;;22.86
31921;BMP280;66485;52.128;4.436;2023-08-07T08:55:22;101807.84;;;22.89
31921;BMP280;66485;52.128;4.436;2023-08-07T08:57:48;101807.84;;;22.89
31921;BMP280;66485;52.128;4.436;2023-08-07T09:00:15;101800.09;;;22.88
31921;BMP280;66485;52.128;4.436;2023-08-07T09:02:47;101798.72;;;22.96
31921;BMP280;66485;52.128;4.436;2023-08-07T09:05:14;101806.97;;;22.92
31921;BMP280;66485;52.128;4.436;2023-08-07T09:07:40;101804.19;;;22.96
31921;BMP280;66485;52.128;4.436;2023-08-07T09:10:06;101804.19;;;22.96
31921;BMP280;66485;52.128;4.436;2023-08-07T09:12:33;101793.94;;;23.00
31921;BMP280;66485;52.128;4.436;2023-08-07T09:15:02;101804.84;;;23.00
31921;BMP280;66485;52.128;4.436;2023-08-07T09:17:29;101804.84;;;23.00
31921;BMP280;66485;52.128;4.436;2023-08-07T09:19:55;101823.16;;;23.03
31921;BMP280;66485;52.128;4.436;2023-08-07T09:22:21;101823.22;;;23.00
31921;BMP280;66485;52.128;4.436;2023-08-07T09:24:47;101812.16;;;23.07
31921;BMP280;66485;52.128;4.436;2023-08-07T09:27:12;101810.69;;;23.02
31921;BMP280;66485;52.128;4.436;2023-08-07T09:29:43;101808.56;;;23.10
31921;BMP280;66485;52.128;4.436;2023-08-07T09:32:11;101824.59;;;23.08
31921;BMP280;66485;52.128;4.436;2023-08-07T09:34:41;101824.59;;;23.08
31921;BMP280;66485;52.128;4.436;2023-08-07T09:37:08;101821.63;;;23.02
31921;BMP280;66485;52.128;4.436;2023-08-07T09:39:34;101832.97;;;23.01
31921;BMP280;66485;52.128;4.436;2023-08-07T09:42:01;101828.78;;;23.12
31921;BMP280;66485;52.128;4.436;2023-08-07T09:44:34;101828.78;;;23.12
31921;BMP280;66485;52.128;4.436;2023-08-07T09:47:00;101830.06;;;23.08
31921;BMP280;66485;52.128;4.436;2023-08-07T09:49:32;101835.13;;;23.09
31921;BMP280;66485;52.128;4.436;2023-08-07T09:51:57;101834.34;;;23.09
31921;BMP280;66485;52.128;4.436;2023-08-07T09:54:23;101840.38;;;23.00
31921;BMP280;66485;52.128;4.436;2023-08-07T09:56:48;101840.38;;;23.00
31921;BMP280;66485;52.128;4.436;2023-08-07T09:59:13;101839.88;;;23.05
31921;BMP280;66485;52.128;4.436;2023-08-07T10:01:39;101844.25;;;23.03
31921;BMP280;66485;52.128;4.436;2023-08-07T10:04:05;101847.69;;;23.07
31921;BMP280;66485;52.128;4.436;2023-08-07T10:06:31;101846.81;;;23.10
31921;BMP280;66485;52.128;4.436;2023-08-07T10:08:57;101862.63;;;23.18
31921;BMP280;66485;52.128;4.436;2023-08-07T10:11:23;101862.63;;;23.18
31921;BMP280;66485;52.128;4.436;2023-08-07T10:13:49;101850.16;;;23.33
31921;BMP280;66485;52.128;4.436;2023-08-07T10:16:15;101854.03;;;23.36
31921;BMP280;66485;52.128;4.436;2023-08-07T10:18:40;101848.56;;;23.36
31921;BMP280;66485;52.128;4.436;2023-08-07T10:21:06;101855.06;;;23.42
31921;BMP280;66485;52.128;4.436;2023-08-07T10:23:34;101855.06;;;23.42
31921;BMP280;66485;52.128;4.436;2023-08-07T10:26:02;101853.00;;;23.46
31921;BMP280;66485;52.128;4.436;2023-08-07T10:28:29;101868.06;;;23.54
31921;BMP280;66485;52.128;4.436;2023-08-07T10:30:56;101864.88;;;23.56
31921;BMP280;66485;52.128;4.436;2023-08-07T10:33:22;101874.94;;;23.59
31921;BMP280;66485;52.128;4.436;2023-08-07T10:35:51;101871.19;;;23.69
31921;BMP280;66485;52.128;4.436;2023-08-07T10:38:19;101871.19;;;23.69
31921;BMP280;66485;52.128;4.436;2023-08-07T10:43:36;101866.59;;;23.66
31921;BMP280;66485;52.128;4.436;2023-08-07T10:46:03;101867.44;;;23.79
31921;BMP280;66485;52.128;4.436;2023-08-07T10:48:30;101867.44;;;23.79
31921;BMP280;66485;52.128;4.436;2023-08-07T10:53:40;101862.06;;;23.75
31921;BMP280;66485;52.128;4.436;2023-08-07T10:56:11;101862.06;;;23.75
31921;BMP280;66485;52.128;4.436;2023-08-07T10:58:40;101863.84;;;23.82
31921;BMP280;66485;52.128;4.436;2023-08-07T11:04:00;101866.84;;;23.88
31921;BMP280;66485;52.128;4.436;2023-08-07T11:06:32;101858.94;;;23.90
31921;BMP280;66485;52.128;4.436;2023-08-07T11:08:58;101864.84;;;23.88
31921;BMP280;66485;52.128;4.436;2023-08-07T11:11:24;101864.84;;;23.88
31921;BMP280;66485;52.128;4.436;2023-08-07T11:13:50;101865.63;;;23.89
31921;BMP280;66485;52.128;4.436;2023-08-07T11:16:16;101871.69;;;23.96
31921;BMP280;66485;52.128;4.436;2023-08-07T11:18:43;101878.53;;;24.04
31921;BMP280;66485;52.128;4.436;2023-08-07T11:21:09;101874.31;;;24.16
31921;BMP280;66485;52.128;4.436;2023-08-07T11:23:36;101879.69;;;24.19
31921;BMP280;66485;52.128;4.436;2023-08-07T11:26:02;101877.97;;;24.26
31921;BMP280;66485;52.128;4.436;2023-08-07T11:28:28;101877.41;;;24.31
31921;BMP280;66485;52.128;4.436;2023-08-07T11:30:54;101876.66;;;24.30
31921;BMP280;66485;52.128;4.436;2023-08-07T11:33:21;101877.28;;;24.34
31921;BMP280;66485;52.128;4.436;2023-08-07T11:35:47;101869.44;;;24.36
31921;BMP280;66485;52.128;4.436;2023-08-07T11:38:34;101871.75;;;24.38
31921;BMP280;66485;52.128;4.436;2023-08-07T11:41:01;101871.75;;;24.38
31921;BMP280;66485;52.128;4.436;2023-08-07T11:43:28;101873.44;;;24.48
31921;BMP280;66485;52.128;4.436;2023-08-07T11:45:54;101879.53;;;24.52
31921;BMP280;66485;52.128;4.436;2023-08-07T11:48:23;101879.53;;;24.52
31921;BMP280;66485;52.128;4.436;2023-08-07T11:50:49;101881.78;;;24.57
31921;BMP280;66485;52.128;4.436;2023-08-07T11:53:14;101881.78;;;24.57
31921;BMP280;66485;52.128;4.436;2023-08-07T11:55:47;101887.91;;;24.74
31921;BMP280;66485;52.128;4.436;2023-08-07T11:58:12;101882.00;;;24.75
31921;BMP280;66485;52.128;4.436;2023-08-07T12:00:37;101882.00;;;24.75
31921;BMP280;66485;52.128;4.436;2023-08-07T12:03:03;101891.22;;;24.81
31921;BMP280;66485;52.128;4.436;2023-08-07T12:05:38;101891.22;;;24.81
31921;BMP280;66485;52.128;4.436;2023-08-07T12:08:03;101889.44;;;24.62
31921;BMP280;66485;52.128;4.436;2023-08-07T12:10:28;101877.38;;;24.47
31921;BMP280;66485;52.128;4.436;2023-08-07T12:12:59;101877.38;;;24.47
31921;BMP280;66485;52.128;4.436;2023-08-07T12:15:28;101882.00;;;24.75
31921;BMP280;66485;52.128;4.436;2023-08-07T12:18:01;101882.00;;;24.75
31921;BMP280;66485;52.128;4.436;2023-08-07T12:20:26;101885.31;;;24.83
31921;BMP280;66485;52.128;4.436;2023-08-07T12:22:52;101887.19;;;24.98
31921;BMP280;66485;52.128;4.436;2023-08-07T12:25:17;101877.75;;;24.99
31921;BMP280;66485;52.128;4.436;2023-08-07T12:27:43;101875.56;;;25.07
31921;BMP280;66485;52.128;4.436;2023-08-07T12:30:12;101874.03;;;25.06
31921;BMP280;66485;52.128;4.436;2023-08-07T12:32:37;101883.25;;;25.12
31921;BMP280;66485;52.128;4.436;2023-08-07T12:35:03;101882.69;;;25.17
31921;BMP280;66485;52.128;4.436;2023-08-07T12:37:28;101876.22;;;25.24
31921;BMP280;66485;52.128;4.436;2023-08-07T12:39:54;101885.09;;;25.28
31921;BMP280;66485;52.128;4.436;2023-08-07T12:42:19;101885.09;;;25.28
31921;BMP280;66485;52.128;4.436;2023-08-07T12:44:44;101873.38;;;25.27
31921;BMP280;66485;52.128;4.436;2023-08-07T12:47:09;101881.28;;;25.13
31921;BMP280;66485;52.128;4.436;2023-08-07T12:49:35;101888.16;;;25.30
31921;BMP280;66485;52.128;4.436;2023-08-07T12:52:00;101878.72;;;25.31
31921;BMP280;66485;52.128;4.436;2023-08-07T12:54:25;101890.34;;;25.35
31921;BMP280;66485;52.128;4.436;2023-08-07T12:56:51;101877.94;;;25.43
31921;BMP280;66485;52.128;4.436;2023-08-07T12:59:17;101881.03;;;25.20
31921;BMP280;66485;52.128;4.436;2023-08-07T13:01:42;101881.03;;;25.20
31921;BMP280;66485;52.128;4.436;2023-08-07T13:04:08;101869.88;;;25.01
31921;BMP280;66485;52.128;4.436;2023-08-07T13:06:33;101875.66;;;25.16
31921;BMP280;66485;52.128;4.436;2023-08-07T13:08:59;101868.22;;;25.04
31921;BMP280;66485;52.128;4.436;2023-08-07T13:11:25;101868.22;;;25.04
31921;BMP280;66485;52.128;4.436;2023-08-07T13:13:50;101883.56;;;24.89
31921;BMP280;66485;52.128;4.436;2023-08-07T13:16:16;101894.09;;;25.03
31921;BMP280;66485;52.128;4.436;2023-08-07T13:18:41;101889.59;;;25.22
31921;BMP280;66485;52.128;4.436;2023-08-07T13:21:06;101889.59;;;25.22
31921;BMP280;66485;52.128;4.436;2023-08-07T13:23:32;101878.06;;;25.39
31921;BMP280;66485;52.128;4.436;2023-08-07T13:25:57;101878.06;;;25.39
31921;BMP280;66485;52.128;4.436;2023-08-07T13:28:23;101878.63;;;24.96
31921;BMP280;66485;52.128;4.436;2023-08-07T13:30:48;101885.63;;;24.85
31921;BMP280;66485;52.128;4.436;2023-08-07T13:33:14;101883.00;;;24.81
31921;BMP280;66485;52.128;4.436;2023-08-07T13:35:39;101887.28;;;24.82
31921;BMP280;66485;52.128;4.436;2023-08-07T13:38:05;101887.28;;;24.82
31921;BMP280;66485;52.128;4.436;2023-08-07T13:40:32;101881.25;;;24.75
31921;BMP280;66485;52.128;4.436;2023-08-07T13:42:58;101881.25;;;24.75
31921;BMP280;66485;52.128;4.436;2023-08-07T13:45:27;101885.94;;;24.74
31921;BMP280;66485;52.128;4.436;2023-08-07T13:47:52;101877.84;;;24.71
31921;BMP280;66485;52.128;4.436;2023-08-07T13:50:17;101883.41;;;24.67
31921;BMP280;66485;52.128;4.436;2023-08-07T13:52:42;101883.41;;;24.67
31921;BMP280;66485;52.128;4.436;2023-08-07T13:55:08;101896.03;;;24.65
31921;BMP280;66485;52.128;4.436;2023-08-07T13:57:34;101899.19;;;24.63
31921;BMP280;66485;52.128;4.436;2023-08-07T13:59:59;101903.88;;;24.62
31921;BMP280;66485;52.128;4.436;2023-08-07T14:02:25;101905.88;;;24.62
31921;BMP280;66485;52.128;4.436;2023-08-07T14:04:50;101905.88;;;24.62